Time,TemperatureF,DewpointF,PressureIn,WindDirection,WindDirectionDegrees,WindSpeedMPH,WindSpeedGustMPH,Humidity,HourlyPrecipIn,Conditions,Clouds,dailyrainin,SoftwareType,DateUTC
2013-07-26 00:32:00,62.0,60.0,30.00,North,0,0.0,-999.0,92,0.00,,,-99.99,,2013-07-26 07:32:00,
2013-07-26 00:43:00,62.0,60.0,30.00,North,0,0.0,-999.0,92,0.00,,,-99.99,,2013-07-26 07:43:00,
2013-07-26 00:52:00,62.0,60.0,30.00,North,0,0.0,-999.0,92,0.00,,,-99.99,,2013-07-26 07:52:00,
2013-07-26 01:32:00,62.0,60.0,30.00,North,0,0.0,-999.0,92,0.00,,,-99.99,,2013-07-26 08:32:00,
2013-07-26 01:44:00,62.0,60.0,30.00,North,0,0.0,-999.0,92,0.00,,,-99.99,,2013-07-26 08:44:00,
2013-07-26 01:52:00,62.0,60.0,30.00,North,0,0.0,-999.0,92,0.00,,,-99.99,,2013-07-26 08:52:00,
2013-07-26 02:32:00,61.0,59.0,29.99,West,280,1.0,-999.0,93,0.00,,,-99.99,,2013-07-26 09:32:00,
2013-07-26 02:43:00,61.0,59.0,29.99,West,280,1.0,-999.0,93,0.00,,,-99.99,,2013-07-26 09:43:00,
2013-07-26 02:52:00,61.0,59.0,29.99,West,280,1.0,-999.0,93,0.00,,,-99.99,,2013-07-26 09:52:00,
2013-07-26 03:33:00,61.0,59.0,29.99,North,0,0.0,-999.0,94,0.00,,,-99.99,,2013-07-26 10:33:00,
2013-07-26 03:42:00,61.0,59.0,29.99,North,0,0.0,-999.0,94,0.00,,,-99.99,,2013-07-26 10:42:00,
2013-07-26 03:52:00,61.0,59.0,29.99,North,0,0.0,-999.0,94,0.00,,,-99.99,,2013-07-26 10:52:00,
2013-07-26 04:32:00,61.0,59.0,30.00,West,270,1.0,-999.0,94,0.00,,,-99.99,,2013-07-26 11:32:00,
2013-07-26 04:43:00,61.0,59.0,30.00,West,270,1.0,-999.0,94,0.00,,,-99.99,,2013-07-26 11:43:00,
2013-07-26 04:52:00,61.0,59.0,30.00,West,270,1.0,-999.0,94,0.00,,,-99.99,,2013-07-26 11:52:00,
2013-07-26 05:33:00,61.0,59.0,30.00,North,0,0.0,-999.0,94,0.00,,,-99.99,,2013-07-26 12:33:00,
2013-07-26 05:43:00,61.0,59.0,30.00,North,0,0.0,-999.0,94,0.00,,,-99.99,,2013-07-26 12:43:00,
2013-07-26 05:53:00,61.0,59.0,30.00,North,0,0.0,-999.0,94,0.00,,,-99.99,,2013-07-26 12:53:00,
2013-07-26 06:32:00,61.0,59.0,30.01,North,0,0.0,-999.0,94,0.01,,,-99.99,,2013-07-26 13:32:00,
2013-07-26 06:43:00,61.0,59.0,30.01,North,0,0.0,-999.0,94,0.01,,,-99.99,,2013-07-26 13:43:00,
2013-07-26 06:53:00,61.0,59.0,30.01,North,0,0.0,-999.0,94,0.01,,,-99.99,,2013-07-26 13:53:00,
2013-07-26 07:43:00,62.0,61.0,30.03,North,0,0.0,-999.0,95,0.00,,,-99.99,,2013-07-26 14:43:00,
2013-07-26 07:53:00,62.0,61.0,30.03,North,0,0.0,-999.0,95,0.00,,,-99.99,,2013-07-26 14:53:00,
2013-07-26 08:32:00,62.0,60.0,30.04,North,0,0.0,-999.0,94,0.01,,,-99.99,,2013-07-26 15:32:00,
2013-07-26 08:43:00,62.0,60.0,30.04,North,0,0.0,-999.0,94,0.01,,,-99.99,,2013-07-26 15:43:00,
2013-07-26 08:53:00,62.0,60.0,30.04,North,0,0.0,-999.0,94,0.01,,,-99.99,,2013-07-26 15:53:00,
2013-07-26 08:54:00,63.0,62.0,30.06,SE,140,1.0,-999.0,95,0.00,,,-99.99,,2013-07-26 15:54:00,
2013-07-26 09:43:00,63.0,62.0,30.06,SE,140,1.0,-999.0,95,0.00,,,-99.99,,2013-07-26 16:43:00,
2013-07-26 10:43:00,63.0,62.0,30.07,West,280,2.0,-999.0,95,0.00,,,-99.99,,2013-07-26 17:43:00,
2013-07-26 10:53:00,63.0,62.0,30.07,West,280,2.0,-999.0,95,0.00,,,-99.99,,2013-07-26 17:53:00,
2013-07-26 11:52:00,63.0,62.0,30.07,West,280,1.0,-999.0,95,0.00,,,-99.99,,2013-07-26 18:52:00,
2013-07-26 13:32:00,69.0,63.0,30.04,West,270,5.0,-999.0,82,0.00,,,-99.99,,2013-07-26 20:32:00,
2013-07-26 13:43:00,69.0,63.0,30.04,West,270,5.0,-999.0,82,0.00,,,-99.99,,2013-07-26 20:43:00,
2013-07-26 13:52:00,69.0,63.0,30.04,West,270,5.0,-999.0,82,0.00,,,-99.99,,2013-07-26 20:52:00,
2013-07-26 15:53:00,71.0,63.0,30.01,West,280,4.0,-999.0,76,0.00,,,-99.99,,2013-07-26 22:53:00,
2013-07-26 16:43:00,75.0,65.0,29.99,West,280,5.0,-999.0,70,0.00,,,-99.99,,2013-07-26 23:43:00,
2013-07-26 16:52:00,75.0,65.0,29.99,West,280,5.0,-999.0,70,0.00,,,-99.99,,2013-07-26 23:52:00,
2013-07-26 17:53:00,69.0,63.0,29.99,WSW,240,3.0,-999.0,81,0.00,,,-99.99,,2013-07-27 00:53:00,
2013-07-26 18:53:00,69.0,63.0,29.98,West,280,4.0,-999.0,82,0.00,,,-99.99,,2013-07-27 01:53:00,
2013-07-26 19:52:00,70.0,63.0,29.97,West,270,3.0,-999.0,79,0.00,,,-99.99,,2013-07-27 02:52:00,
2013-07-26 20:52:00,64.0,60.0,29.97,West,280,3.0,-999.0,88,0.00,,,-99.99,,2013-07-27 03:52:00,
2013-07-26 21:32:00,62.0,59.0,29.98,North,0,0.0,-999.0,91,0.00,,,-99.99,,2013-07-27 04:32:00,
2013-07-26 21:43:00,62.0,59.0,29.98,North,0,0.0,-999.0,91,0.00,,,-99.99,,2013-07-27 04:43:00,
2013-07-26 21:53:00,62.0,59.0,29.98,North,0,0.0,-999.0,91,0.00,,,-99.99,,2013-07-27 04:53:00,
2013-07-26 22:32:00,63.0,60.0,30.00,North,0,0.0,-999.0,91,0.00,,,-99.99,,2013-07-27 05:32:00,
2013-07-26 22:43:00,63.0,60.0,30.00,North,0,0.0,-999.0,91,0.00,,,-99.99,,2013-07-27 05:43:00,
2013-07-26 22:52:00,63.0,60.0,30.00,North,0,0.0,-999.0,91,0.00,,,-99.99,,2013-07-27 05:52:00,
2013-07-26 23:43:00,63.0,60.0,30.00,North,0,0.0,-999.0,90,0.00,,,-99.99,,2013-07-27 06:43:00,
2013-07-26 23:52:00,63.0,60.0,30.00,North,0,0.0,-999.0,90,0.00,,,-99.99,,2013-07-27 06:52:00,